This is the latest recevied weather packets stored in our database for station/object N1ICS-1. If no packets are shown the sender has not sent any weather packets the latest 10 day(s).
| Time | Temp. | Humidity | Pressure | Rain* | Wind** | Luminosity | Snow |
|---|---|---|---|---|---|---|---|
| 1778003401 | 10.56° C | 93% | 1010.3 hPa | 0.51 mm | - | 79 W/m² | - |
| 1778003102 | 10.56° C | 93% | 1009.7 hPa | 1.02 mm | - | 209 W/m² | - |
| 1778002802 | 10.56° C | 93% | 1010.4 hPa | 1.78 mm | - | 76 W/m² | - |
| 1778002502 | 10.56° C | 93% | 1010.2 hPa | 2.79 mm | - | 99 W/m² | - |
| 1778002202 | 10.56° C | 91% | 1010.1 hPa | 2.29 mm | - | 110 W/m² | - |
| 1778001902 | 10.56° C | 90% | 1010.4 hPa | 1.78 mm | - | 123 W/m² | - |
| 1778001602 | 10.56° C | 88% | 1010.2 hPa | 1.02 mm | - | 109 W/m² | - |
| 1778001302 | 10.56° C | 88% | 1010.4 hPa | 1.02 mm | - | 127 W/m² | - |
| 1778001002 | 11.11° C | 89% | 1010.3 hPa | 1.78 mm | - | 115 W/m² | - |
| 1778000701 | 11.11° C | 88% | 1010.4 hPa | 1.02 mm | - | 150 W/m² | - |
| 1778000403 | 10.56° C | 89% | 1010.2 hPa | 1.78 mm | - | 145 W/m² | - |
| 1778000102 | 11.11° C | 89% | 1010 hPa | 1.02 mm | - | 143 W/m² | - |
| 1777999801 | 11.11° C | 88% | 1010.3 hPa | 1.78 mm | - | 103 W/m² | - |
| 1777999501 | 11.11° C | 87% | 1010.3 hPa | 2.29 mm | - | 96 W/m² | - |
| 1777999202 | 11.11° C | 85% | 1010.2 hPa | 2.79 mm | - | 142 W/m² | - |
| 1777998901 | 11.11° C | 85% | 1010.4 hPa | 1.78 mm | - | 104 W/m² | - |
| 1777998602 | 11.11° C | 83% | 1010.2 hPa | 0.51 mm | - | 104 W/m² | - |
| 1777998302 | 11.67° C | 80% | 1010.2 hPa | 0.51 mm | - | 159 W/m² | - |
| 1777998002 | 11.67° C | 78% | 1010.3 hPa | 1.02 mm | - | 175 W/m² | - |
| 1777997702 | 12.22° C | 75% | 1010.6 hPa | 0.51 mm | - | 106 W/m² | - |
| 1777997403 | 12.22° C | 71% | 1010.5 hPa | 0 mm | - | 83 W/m² | - |
| 1777997102 | 12.78° C | 70% | 1010.8 hPa | 0 mm | - | 55 W/m² | - |
| 1777996803 | 13.33° C | 71% | 1010.8 hPa | 0 mm | - | 56 W/m² | - |
| 1777996502 | 13.33° C | 78% | 1010.7 hPa | 0 mm | - | 66 W/m² | - |
| 1777996202 | 13.89° C | 81% | 1010.5 hPa | 0 mm | - | 86 W/m² | - |
* Rain latest hour (hover to see other rain measurements)
** Current wind speed in m/s (hover to see current wind gust speed)